createdAt,value
2018-12-05T00:00:00.867Z,21.57
2018-12-05T00:02:29.156Z,16.57
2018-12-05T00:04:56.694Z,13.80
2018-12-05T00:07:24.648Z,21.00
2018-12-05T00:09:52.584Z,21.67
2018-12-05T00:12:20.160Z,14.37
2018-12-05T00:14:48.015Z,16.70
2018-12-05T00:17:15.741Z,18.87
2018-12-05T00:19:43.279Z,19.87
2018-12-05T00:22:11.055Z,28.03
2018-12-05T00:24:38.933Z,25.57
2018-12-05T00:27:06.650Z,24.67
2018-12-05T00:29:34.383Z,15.27
2018-12-05T00:32:02.279Z,37.50
2018-12-05T00:34:30.163Z,20.93
2018-12-05T00:36:58.242Z,20.20
2018-12-05T00:39:25.806Z,23.20
2018-12-05T00:41:54.054Z,23.90
2018-12-05T00:44:21.783Z,16.90
2018-12-05T00:46:49.360Z,13.43
2018-12-05T00:49:16.891Z,19.40
2018-12-05T00:51:44.423Z,14.20
2018-12-05T00:54:12.291Z,17.53
2018-12-05T00:56:40.090Z,14.83
2018-12-05T00:59:07.618Z,16.87
2018-12-05T01:01:35.535Z,17.60
2018-12-05T01:04:03.063Z,18.60
2018-12-05T01:06:30.722Z,14.70
2018-12-05T01:08:58.666Z,14.77
2018-12-05T01:11:26.214Z,17.73
2018-12-05T01:13:54.114Z,11.33
2018-12-05T01:16:21.684Z,13.20
2018-12-05T01:18:49.438Z,26.70
2018-12-05T01:21:17.098Z,9.60
2018-12-05T01:23:45.030Z,11.77
2018-12-05T01:26:12.683Z,14.70
2018-12-05T01:28:40.747Z,11.23
2018-12-05T01:31:08.499Z,11.70
2018-12-05T01:33:36.042Z,16.07
2018-12-05T01:36:04.045Z,16.13
2018-12-05T01:38:31.779Z,11.07
2018-12-05T01:40:59.478Z,13.20
2018-12-05T01:43:29.138Z,16.83
2018-12-05T01:45:56.801Z,18.63
2018-12-05T01:48:24.499Z,12.20
2018-12-05T01:50:52.035Z,12.67
2018-12-05T01:53:20.238Z,13.47
2018-12-05T01:55:48.085Z,14.00
2018-12-05T01:58:15.899Z,15.83
2018-12-05T02:00:43.462Z,12.90
2018-12-05T02:03:11.344Z,20.27
2018-12-05T02:05:39.112Z,17.87
2018-12-05T02:08:06.676Z,19.13
2018-12-05T02:10:34.455Z,12.00
2018-12-05T02:13:01.989Z,37.33
2018-12-05T02:15:29.997Z,44.83
2018-12-05T02:17:57.798Z,29.87
2018-12-05T02:20:25.353Z,12.57
2018-12-05T02:22:53.279Z,18.40
2018-12-05T02:25:21.051Z,21.77
2018-12-05T02:27:48.912Z,24.77
2018-12-05T02:30:16.962Z,24.93
2018-12-05T02:32:44.848Z,23.17
2018-12-05T02:35:12.595Z,42.80
2018-12-05T02:37:40.384Z,37.57
2018-12-05T02:40:08.024Z,26.90
2018-12-05T02:42:35.693Z,11.47
2018-12-05T02:45:04.492Z,16.30
2018-12-05T02:47:32.385Z,31.47
2018-12-05T02:50:00.106Z,20.53
2018-12-05T02:52:27.741Z,13.03
2018-12-05T02:54:55.569Z,14.20
2018-12-05T02:57:23.293Z,29.40
2018-12-05T02:59:51.162Z,25.83
2018-12-05T03:02:18.693Z,17.13
2018-12-05T03:04:46.582Z,23.40
2018-12-05T03:07:14.549Z,26.80
2018-12-05T03:09:42.183Z,20.17
2018-12-05T03:12:09.815Z,18.10
2018-12-05T03:14:37.511Z,14.43
2018-12-05T03:17:05.184Z,13.03
2018-12-05T03:19:32.802Z,21.57
2018-12-05T03:22:00.865Z,23.10
2018-12-05T03:24:28.755Z,17.63
2018-12-05T03:26:56.628Z,15.97
2018-12-05T03:29:24.346Z,16.30
2018-12-05T03:31:51.924Z,15.03
2018-12-05T03:34:19.460Z,17.20
2018-12-05T03:36:47.036Z,20.70
2018-12-05T03:39:14.691Z,18.30
2018-12-05T03:41:42.407Z,20.10
2018-12-05T03:44:10.168Z,19.47
2018-12-05T03:46:37.702Z,19.87
2018-12-05T03:49:05.459Z,20.00
2018-12-05T03:51:33.032Z,16.77
2018-12-05T03:54:00.662Z,15.23
2018-12-05T03:56:28.375Z,14.53
2018-12-05T03:58:56.231Z,12.70
2018-12-05T04:01:24.111Z,14.57
2018-12-05T04:03:51.871Z,11.33
2018-12-05T04:06:20.021Z,11.97
2018-12-05T04:08:47.567Z,18.17
2018-12-05T04:11:15.117Z,11.10
2018-12-05T04:13:42.787Z,16.17
2018-12-05T04:16:10.751Z,18.50
2018-12-05T04:18:38.584Z,22.33
2018-12-05T04:21:06.481Z,27.97
2018-12-05T04:23:34.026Z,22.33
2018-12-05T04:26:01.758Z,22.17
2018-12-05T04:28:29.979Z,20.93
2018-12-05T04:30:57.820Z,19.00
2018-12-05T04:33:26.005Z,18.30
2018-12-05T04:35:53.819Z,22.93
2018-12-05T04:38:21.910Z,18.77
2018-12-05T04:40:49.440Z,15.13
2018-12-05T04:43:17.626Z,12.87
2018-12-05T04:45:45.652Z,13.10
2018-12-05T04:48:13.203Z,27.13
2018-12-05T04:50:41.036Z,13.70
2018-12-05T04:53:09.043Z,15.27
2018-12-05T04:55:36.707Z,12.77
2018-12-05T04:58:04.591Z,15.93
2018-12-05T05:00:32.121Z,12.73
2018-12-05T05:02:59.733Z,14.43
2018-12-05T05:05:27.983Z,15.60
2018-12-05T05:07:56.108Z,9.73
2018-12-05T05:10:23.639Z,9.03
2018-12-05T05:12:51.565Z,16.50
2018-12-05T05:15:19.256Z,16.03
2018-12-05T05:17:46.958Z,20.20
2018-12-05T05:20:14.531Z,24.30
2018-12-05T05:22:42.186Z,19.20
2018-12-05T05:25:10.290Z,19.53
2018-12-05T05:27:37.854Z,16.57
2018-12-05T05:30:05.495Z,16.47
2018-12-05T05:32:33.223Z,28.53
2018-12-05T05:35:00.797Z,39.20
2018-12-05T05:37:28.387Z,15.03
2018-12-05T05:39:55.923Z,19.13
2018-12-05T05:42:23.696Z,16.00
2018-12-05T05:44:51.506Z,21.27
2018-12-05T05:47:19.030Z,14.63
2018-12-05T05:49:46.606Z,24.73
2018-12-05T05:52:14.133Z,21.73
2018-12-05T05:54:41.810Z,15.17
2018-12-05T05:57:09.507Z,11.83
2018-12-05T05:59:37.140Z,29.67
2018-12-05T06:02:04.666Z,24.23
2018-12-05T06:04:32.429Z,21.60
2018-12-05T06:07:00.315Z,20.27
2018-12-05T06:09:28.151Z,20.17
2018-12-05T06:11:55.918Z,17.80
2018-12-05T06:14:23.686Z,12.67
2018-12-05T06:16:51.406Z,14.70
2018-12-05T06:19:19.217Z,22.30
2018-12-05T06:21:46.842Z,26.27
2018-12-05T06:24:14.507Z,18.80
2018-12-05T06:26:42.083Z,19.13
2018-12-05T06:29:09.970Z,18.13
2018-12-05T06:31:37.695Z,22.23
2018-12-05T06:34:05.624Z,26.47
2018-12-05T06:36:33.158Z,22.10
2018-12-05T06:39:00.885Z,23.47
2018-12-05T06:41:28.818Z,30.13
2018-12-05T06:43:56.355Z,42.70
2018-12-05T06:46:24.070Z,37.27
2018-12-05T06:48:51.638Z,30.97
2018-12-05T06:51:19.618Z,17.10
2018-12-05T06:53:47.168Z,19.53
2018-12-05T06:56:15.169Z,20.43
2018-12-05T06:58:42.700Z,17.67
2018-12-05T07:01:10.231Z,17.87
2018-12-05T07:03:38.146Z,18.90
2018-12-05T07:06:05.846Z,15.17
2018-12-05T07:08:34.490Z,19.03
2018-12-05T07:11:02.374Z,21.47
2018-12-05T07:13:29.911Z,13.87
2018-12-05T07:15:57.448Z,19.97
2018-12-05T07:18:25.285Z,32.10
2018-12-05T07:20:52.967Z,30.57
2018-12-05T07:23:20.847Z,35.53
2018-12-05T07:25:48.757Z,32.10
2018-12-05T07:28:16.395Z,50.43
2018-12-05T07:30:44.208Z,43.17
2018-12-05T07:33:11.774Z,53.40
2018-12-05T07:35:39.310Z,65.50
2018-12-05T07:38:07.190Z,60.40
2018-12-05T07:40:35.083Z,60.20
2018-12-05T07:43:02.623Z,61.20
2018-12-05T07:45:30.427Z,60.17
2018-12-05T07:47:58.628Z,77.97
2018-12-05T07:50:26.196Z,50.33
2018-12-05T07:52:54.039Z,20.60
2018-12-05T07:55:21.679Z,19.27
2018-12-05T07:57:49.256Z,26.83
2018-12-05T08:00:16.800Z,55.80
2018-12-05T08:02:44.690Z,35.93
2018-12-05T08:05:12.247Z,29.13
2018-12-05T08:07:40.071Z,171.33
2018-12-05T08:10:07.686Z,81.57
2018-12-05T08:12:35.545Z,66.23
2018-12-05T08:15:03.227Z,20.00
2018-12-05T08:17:31.118Z,20.43
2018-12-05T08:19:58.862Z,21.87
2018-12-05T08:22:26.575Z,26.70
2018-12-05T08:24:54.678Z,24.77
2018-12-05T08:27:22.273Z,23.00
2018-12-05T08:29:49.805Z,24.87
2018-12-05T08:32:17.386Z,27.40
2018-12-05T08:34:45.082Z,32.87
2018-12-05T08:37:12.886Z,35.93
2018-12-05T08:39:40.779Z,35.17
2018-12-05T08:42:08.314Z,32.80
2018-12-05T08:44:36.811Z,29.23
2018-12-05T08:47:04.412Z,36.60
2018-12-05T08:49:32.240Z,17.40
2018-12-05T08:51:59.878Z,17.77
2018-12-05T08:54:27.614Z,18.20
2018-12-05T08:56:55.154Z,36.67
2018-12-05T08:59:22.689Z,39.43
2018-12-05T09:01:50.260Z,12.27
2018-12-05T09:04:17.793Z,19.60
2018-12-05T09:06:45.431Z,20.13
2018-12-05T09:09:13.133Z,18.60
2018-12-05T09:11:40.802Z,12.50
2018-12-05T09:14:08.677Z,17.40
2018-12-05T09:16:36.368Z,19.63
2018-12-05T09:19:04.175Z,18.33
2018-12-05T09:21:32.007Z,9.83
2018-12-05T09:23:59.838Z,12.00
2018-12-05T09:26:27.560Z,10.73
2018-12-05T09:28:57.296Z,12.23
2018-12-05T09:31:25.587Z,10.90
2018-12-05T09:33:53.174Z,15.23
2018-12-05T09:36:20.842Z,19.10
2018-12-05T09:38:48.913Z,13.37
2018-12-05T09:41:16.566Z,19.70
2018-12-05T09:43:44.327Z,17.77
2018-12-05T09:46:12.143Z,20.13
2018-12-05T09:48:39.846Z,19.50
2018-12-05T09:51:07.462Z,13.03
2018-12-05T09:53:35.072Z,11.00
2018-12-05T09:56:02.612Z,8.83
2018-12-05T09:58:30.154Z,10.17
2018-12-05T10:00:58.164Z,38.13
2018-12-05T10:03:25.846Z,8.90
2018-12-05T10:05:53.439Z,11.87
2018-12-05T10:08:20.997Z,8.33
2018-12-05T10:10:48.754Z,12.30
2018-12-05T10:13:16.624Z,10.20
2018-12-05T10:15:44.556Z,14.27
2018-12-05T10:18:12.174Z,9.30
2018-12-05T10:20:39.714Z,14.27
2018-12-05T10:23:08.081Z,8.73
2018-12-05T10:25:36.352Z,13.33
2018-12-05T10:28:03.898Z,9.63
2018-12-05T10:30:31.853Z,10.97
2018-12-05T10:32:59.436Z,10.90
2018-12-05T10:35:27.053Z,10.93
2018-12-05T10:37:55.065Z,14.37
2018-12-05T10:40:22.601Z,11.00
2018-12-05T10:42:50.349Z,11.67
2018-12-05T10:45:17.931Z,12.27
2018-12-05T10:47:45.900Z,12.33
2018-12-05T10:50:13.456Z,12.33
2018-12-05T10:52:41.466Z,11.27
2018-12-05T10:55:09.059Z,13.87
2018-12-05T10:57:36.918Z,10.63
2018-12-05T11:00:08.723Z,8.57
2018-12-05T11:02:41.911Z,9.40
2018-12-05T11:05:15.985Z,8.37
2018-12-05T11:07:49.215Z,9.47
2018-12-05T11:10:22.479Z,11.73
2018-12-05T11:12:55.874Z,13.47
2018-12-05T11:15:29.051Z,16.87
2018-12-05T11:21:10.128Z,11.17
2018-12-05T11:23:43.223Z,18.03
2018-12-05T11:26:14.262Z,12.97
2018-12-05T11:28:41.822Z,13.33
2018-12-05T11:31:09.379Z,11.30
2018-12-05T11:33:37.087Z,10.80
2018-12-05T11:36:05.198Z,12.00
2018-12-05T11:38:32.754Z,10.77
2018-12-05T11:41:00.428Z,9.63
2018-12-05T11:43:28.238Z,13.70
2018-12-05T11:45:55.775Z,14.83
2018-12-05T11:48:23.748Z,14.20
2018-12-05T11:50:51.609Z,44.73
2018-12-05T11:53:19.160Z,18.27
2018-12-05T11:55:46.871Z,15.37
2018-12-05T11:58:14.593Z,42.30
2018-12-05T12:00:42.163Z,33.20
2018-12-05T12:03:10.319Z,40.53
2018-12-05T12:05:37.857Z,17.37
2018-12-05T12:08:05.532Z,19.30
2018-12-05T12:10:39.080Z,18.17
2018-12-05T12:13:07.186Z,17.93
2018-12-05T12:15:35.034Z,26.43
2018-12-05T12:18:03.091Z,25.83
2018-12-05T12:20:31.085Z,42.27
2018-12-05T12:22:58.621Z,20.63
2018-12-05T12:25:26.335Z,13.83
2018-12-05T12:27:53.991Z,38.33
2018-12-05T12:30:21.542Z,27.30
2018-12-05T12:32:49.115Z,22.07
2018-12-05T12:35:16.903Z,16.70
2018-12-05T12:37:44.470Z,16.43
2018-12-05T12:40:12.059Z,30.47
2018-12-05T12:42:39.724Z,17.30
2018-12-05T12:45:07.418Z,26.00
2018-12-05T12:47:35.280Z,30.57
2018-12-05T12:50:03.421Z,32.17
2018-12-05T12:52:31.099Z,21.30
2018-12-05T12:54:58.853Z,20.70
2018-12-05T12:57:26.405Z,26.13
2018-12-05T12:59:54.123Z,26.90
2018-12-05T13:02:21.694Z,24.63
2018-12-05T13:04:49.435Z,16.77
2018-12-05T13:07:17.256Z,18.17
2018-12-05T13:09:44.998Z,17.90
2018-12-05T13:12:14.774Z,16.97
2018-12-05T13:14:42.325Z,16.63
2018-12-05T13:17:10.470Z,20.37
2018-12-05T13:19:38.424Z,18.30
2018-12-05T13:22:06.143Z,19.80
2018-12-05T13:24:33.714Z,19.00
2018-12-05T13:27:01.264Z,20.00
2018-12-05T13:29:28.919Z,20.70
2018-12-05T13:31:56.687Z,22.27
2018-12-05T13:34:24.398Z,20.97
2018-12-05T13:36:52.368Z,24.63
2018-12-05T13:39:20.018Z,29.10
2018-12-05T13:41:47.563Z,23.70
2018-12-05T13:44:15.289Z,33.10
2018-12-05T13:46:42.974Z,27.33
2018-12-05T13:49:10.606Z,28.30
2018-12-05T13:51:38.176Z,22.20
2018-12-05T13:54:06.094Z,21.43
2018-12-05T13:56:33.636Z,19.60
2018-12-05T13:59:01.264Z,21.50
2018-12-05T14:01:28.843Z,21.27
2018-12-05T14:03:57.051Z,17.23
2018-12-05T14:06:24.618Z,23.73
2018-12-05T14:08:52.199Z,20.80
2018-12-05T14:11:19.750Z,30.43
2018-12-05T14:13:47.431Z,26.20
2018-12-05T14:16:15.129Z,17.60
2018-12-05T14:18:42.731Z,23.60
2018-12-05T14:21:10.580Z,25.27
2018-12-05T14:23:38.364Z,21.87
2018-12-05T14:26:06.015Z,14.50
2018-12-05T14:28:33.795Z,16.80
2018-12-05T14:31:01.978Z,17.40
2018-12-05T14:33:29.716Z,26.97
2018-12-05T14:35:57.434Z,20.87
2018-12-05T14:38:25.640Z,22.93
2018-12-05T14:40:53.511Z,28.53
2018-12-05T14:43:21.165Z,30.07
2018-12-05T14:45:48.933Z,118.37
2018-12-05T14:48:16.716Z,93.77
2018-12-05T14:50:44.460Z,83.63
2018-12-05T14:53:12.283Z,102.10
2018-12-05T14:55:39.896Z,115.60
2018-12-05T14:58:07.445Z,145.83
2018-12-05T15:00:35.207Z,96.73
2018-12-05T15:03:04.305Z,149.07
2018-12-05T15:05:32.044Z,115.73
2018-12-05T15:07:59.618Z,97.60
2018-12-05T15:10:27.233Z,105.90
2018-12-05T15:12:55.443Z,101.50
2018-12-05T15:15:23.102Z,93.87
2018-12-05T15:17:50.786Z,82.07
2018-12-05T15:20:18.358Z,81.07
2018-12-05T15:22:46.235Z,67.67
2018-12-05T15:25:13.776Z,71.67
2018-12-05T15:27:41.335Z,91.17
2018-12-05T15:30:09.239Z,127.73
2018-12-05T15:32:36.805Z,136.40
2018-12-05T15:35:04.743Z,128.43
2018-12-05T15:37:32.570Z,150.40
2018-12-05T15:40:00.306Z,146.10
2018-12-05T15:42:27.852Z,143.37
2018-12-05T15:44:55.547Z,155.30
2018-12-05T15:47:23.416Z,139.20
2018-12-05T15:49:51.160Z,137.17
2018-12-05T15:52:18.801Z,144.87
2018-12-05T15:54:46.528Z,128.23
2018-12-05T15:57:14.103Z,106.27
2018-12-05T15:59:41.697Z,117.33
2018-12-05T16:02:09.566Z,135.47
2018-12-05T16:04:37.651Z,129.07
2018-12-05T16:07:05.242Z,141.63
2018-12-05T16:09:32.791Z,163.93
2018-12-05T16:12:00.345Z,155.70
2018-12-05T16:14:28.498Z,236.20
2018-12-05T16:16:56.568Z,220.03
2018-12-05T16:19:24.115Z,222.47
2018-12-05T16:21:51.910Z,169.50
2018-12-05T16:24:19.966Z,168.33
2018-12-05T16:26:48.159Z,171.30
2018-12-05T16:29:16.032Z,192.80
2018-12-05T16:31:45.318Z,189.03
2018-12-05T16:34:13.271Z,189.03
2018-12-05T16:36:40.859Z,190.43
2018-12-05T16:39:09.185Z,188.20
2018-12-05T16:41:37.071Z,167.67
2018-12-05T16:44:05.108Z,196.90
2018-12-05T16:46:34.231Z,191.53
2018-12-05T16:49:01.865Z,144.03
2018-12-05T16:51:29.971Z,148.53
2018-12-05T16:53:57.756Z,148.47
2018-12-05T16:56:25.897Z,151.37
2018-12-05T16:58:54.125Z,158.43
2018-12-05T17:01:21.675Z,107.70
2018-12-05T17:03:50.140Z,104.23
2018-12-05T17:06:17.750Z,139.07
2018-12-05T17:08:45.479Z,136.17
2018-12-05T17:11:13.056Z,164.30
2018-12-05T17:13:41.478Z,164.33
2018-12-05T17:16:09.033Z,150.00
2018-12-05T17:18:36.891Z,162.43
2018-12-05T17:21:04.638Z,196.07
2018-12-05T17:23:32.934Z,304.20
2018-12-05T17:26:01.492Z,178.57
2018-12-05T17:28:29.206Z,138.30
2018-12-05T17:30:57.251Z,141.70
2018-12-05T17:33:25.314Z,227.30
2018-12-05T17:35:52.933Z,251.10
2018-12-05T17:38:20.561Z,186.23
2018-12-05T17:40:48.192Z,161.37
2018-12-05T17:43:15.787Z,192.60
2018-12-05T17:45:43.614Z,218.50
2018-12-05T17:48:12.070Z,227.77
2018-12-05T17:50:40.369Z,256.63
2018-12-05T17:53:08.834Z,217.80
2018-12-05T17:55:36.410Z,244.30
2018-12-05T17:58:04.176Z,280.33
2018-12-05T18:00:32.039Z,281.07
2018-12-05T18:03:00.004Z,176.70
2018-12-05T18:05:29.827Z,196.13
2018-12-05T18:07:57.810Z,195.70
2018-12-05T18:10:26.169Z,210.40
2018-12-05T18:12:53.765Z,193.93
2018-12-05T18:15:23.101Z,215.13
2018-12-05T18:17:51.533Z,223.43
2018-12-05T18:20:20.488Z,210.37
2018-12-05T18:22:48.150Z,192.63
2018-12-05T18:25:15.726Z,229.17
2018-12-05T18:27:43.552Z,311.07
2018-12-05T18:30:11.539Z,366.57
2018-12-05T18:32:39.332Z,333.23
2018-12-05T18:35:06.925Z,308.80
2018-12-05T18:37:34.496Z,323.73
2018-12-05T18:40:02.063Z,321.43
2018-12-05T18:42:29.760Z,310.10
2018-12-05T18:44:57.489Z,279.50
2018-12-05T18:47:25.068Z,266.10
2018-12-05T18:49:53.027Z,254.53
2018-12-05T18:52:21.459Z,244.17
2018-12-05T18:54:49.022Z,241.90
2018-12-05T18:57:16.837Z,256.90
2018-12-05T18:59:44.402Z,233.17
2018-12-05T19:02:12.355Z,222.27
2018-12-05T19:04:39.961Z,265.23
2018-12-05T19:07:07.523Z,233.30
2018-12-05T19:09:35.098Z,251.63
2018-12-05T19:12:03.407Z,276.73
2018-12-05T19:14:46.026Z,300.40
2018-12-05T19:17:14.221Z,278.10
2018-12-05T19:19:41.954Z,291.70
2018-12-05T19:22:09.715Z,375.57
2018-12-05T19:24:37.404Z,446.07
2018-12-05T19:27:05.346Z,362.83
2018-12-05T19:29:33.111Z,427.00
2018-12-05T19:32:01.080Z,359.93
2018-12-05T19:34:28.736Z,430.13
2018-12-05T19:36:56.304Z,454.30
2018-12-05T19:39:24.470Z,476.40
2018-12-05T19:41:52.040Z,460.87
2018-12-05T19:44:19.594Z,437.07
2018-12-05T19:46:47.360Z,414.40
2018-12-05T19:49:15.274Z,397.93
2018-12-05T19:51:43.182Z,431.27
2018-12-05T19:54:11.154Z,444.57
2018-12-05T19:56:39.938Z,497.83
2018-12-05T19:59:08.461Z,528.67
2018-12-05T20:01:36.487Z,514.93
2018-12-05T20:04:04.349Z,517.57
2018-12-05T20:06:31.995Z,545.53
2018-12-05T20:08:59.982Z,600.00
2018-12-05T20:11:27.598Z,577.70
2018-12-05T20:13:55.306Z,567.87
2018-12-05T20:16:22.990Z,530.10
2018-12-05T20:18:50.588Z,538.20
2018-12-05T20:21:18.370Z,536.23
2018-12-05T20:23:46.034Z,533.47
2018-12-05T20:26:13.817Z,572.17
2018-12-05T20:28:42.254Z,628.83
2018-12-05T20:31:11.103Z,633.83
2018-12-05T20:33:38.936Z,600.90
2018-12-05T20:36:06.599Z,641.90
2018-12-05T20:38:34.203Z,615.40
2018-12-05T20:41:01.759Z,621.43
2018-12-05T20:43:29.583Z,570.47
2018-12-05T20:45:57.858Z,572.87
2018-12-05T20:48:25.412Z,543.37
2018-12-05T20:50:52.970Z,523.80
2018-12-05T20:53:20.758Z,518.47
2018-12-05T20:55:48.341Z,537.43
2018-12-05T20:58:15.895Z,520.50
2018-12-05T21:00:43.623Z,497.13
2018-12-05T21:03:11.327Z,488.50
2018-12-05T21:05:39.047Z,512.53
2018-12-05T21:08:07.003Z,484.17
2018-12-05T21:10:34.590Z,506.63
2018-12-05T21:13:03.059Z,484.80
2018-12-05T21:15:30.662Z,516.67
2018-12-05T21:17:58.244Z,502.50
2018-12-05T21:20:26.944Z,492.63
2018-12-05T21:22:54.542Z,480.47
2018-12-05T21:25:22.111Z,547.40
2018-12-05T21:27:49.933Z,548.07
2018-12-05T21:30:18.019Z,503.30
2018-12-05T21:32:45.871Z,561.67
2018-12-05T21:35:13.417Z,547.83
2018-12-05T21:37:41.160Z,569.23
2018-12-05T21:40:08.879Z,499.13
2018-12-05T21:42:36.709Z,384.87
2018-12-05T21:45:04.985Z,386.43
2018-12-05T21:47:32.556Z,411.27
2018-12-05T21:50:00.719Z,496.97
2018-12-05T21:52:28.308Z,348.93
2018-12-05T21:54:56.019Z,342.63
2018-12-05T21:57:23.578Z,346.37
2018-12-05T21:59:51.591Z,303.07
2018-12-05T22:04:52.418Z,290.87
2018-12-05T22:07:20.079Z,346.20
2018-12-05T22:09:48.589Z,274.03
2018-12-05T22:12:16.175Z,308.80
2018-12-05T22:14:43.716Z,315.57
2018-12-05T22:17:11.266Z,280.17
2018-12-05T22:19:38.923Z,322.87
2018-12-05T22:22:07.911Z,326.60
2018-12-05T22:24:35.547Z,333.13
2018-12-05T22:27:03.207Z,298.00
2018-12-05T22:29:30.943Z,257.27
2018-12-05T22:31:58.626Z,376.90
2018-12-05T22:34:26.446Z,341.47
2018-12-05T22:36:53.997Z,262.83
2018-12-05T22:39:21.542Z,276.20
2018-12-05T22:41:49.118Z,273.67
2018-12-05T22:44:16.670Z,341.60
2018-12-05T22:46:44.483Z,285.00
2018-12-05T22:49:12.083Z,312.80
2018-12-05T22:51:39.642Z,285.70
2018-12-05T22:54:07.188Z,250.03
2018-12-05T22:56:35.034Z,208.53
2018-12-05T22:59:03.081Z,213.77
2018-12-05T23:01:31.026Z,212.87
2018-12-05T23:03:58.929Z,219.53
2018-12-05T23:06:26.681Z,242.60
2018-12-05T23:08:54.452Z,245.87
2018-12-05T23:11:22.063Z,243.33
2018-12-05T23:13:49.609Z,253.93
2018-12-05T23:16:18.219Z,265.37
2018-12-05T23:18:45.913Z,235.10
2018-12-05T23:21:13.484Z,237.80
2018-12-05T23:23:41.030Z,212.03
2018-12-05T23:26:09.102Z,179.47
2018-12-05T23:28:36.643Z,206.60
2018-12-05T23:31:04.190Z,192.43
2018-12-05T23:33:31.775Z,166.97
2018-12-05T23:35:59.732Z,152.30
2018-12-05T23:38:27.282Z,193.80
2018-12-05T23:40:55.311Z,185.23
2018-12-05T23:43:23.190Z,176.70
2018-12-05T23:45:50.744Z,164.33
2018-12-05T23:48:18.526Z,155.13
2018-12-05T23:50:46.079Z,137.03
2018-12-05T23:53:13.627Z,124.70
2018-12-05T23:55:41.210Z,117.83
2018-12-05T23:58:08.765Z,127.20
